createdAt,value
2019-02-23T00:01:58.814Z,8.60
2019-02-23T00:04:27.681Z,8.60
2019-02-23T00:06:57.344Z,8.60
2019-02-23T00:09:26.111Z,8.50
2019-02-23T00:11:58.996Z,8.50
2019-02-23T00:14:48.874Z,8.50
2019-02-23T00:17:18.613Z,8.40
2019-02-23T00:19:48.881Z,8.40
2019-02-23T00:22:17.954Z,8.40
2019-02-23T00:24:46.730Z,8.40
2019-02-23T00:27:15.444Z,8.40
2019-02-23T00:29:45.042Z,8.30
2019-02-23T00:32:13.878Z,8.30
2019-02-23T00:34:42.591Z,8.30
2019-02-23T00:37:11.327Z,8.30
2019-02-23T00:39:40.042Z,8.30
2019-02-23T00:42:08.801Z,8.30
2019-02-23T00:44:37.550Z,8.20
2019-02-23T00:47:06.273Z,8.20
2019-02-23T00:49:36.632Z,8.20
2019-02-23T00:52:05.600Z,8.20
2019-02-23T00:54:34.358Z,8.10
2019-02-23T00:57:03.099Z,8.10
2019-02-23T00:59:31.834Z,8.10
2019-02-23T01:02:00.678Z,8.10
2019-02-23T01:04:29.390Z,8.10
2019-02-23T01:06:58.193Z,8.00
2019-02-23T01:09:27.038Z,8.00
2019-02-23T01:11:55.758Z,8.00
2019-02-23T01:14:24.513Z,8.00
2019-02-23T01:16:53.223Z,7.90
2019-02-23T01:19:21.962Z,7.90
2019-02-23T01:21:50.673Z,7.90
2019-02-23T01:24:19.394Z,7.80
2019-02-23T01:26:48.165Z,7.80
2019-02-23T01:29:16.878Z,7.70
2019-02-23T01:31:45.685Z,7.70
2019-02-23T01:34:16.896Z,7.70
2019-02-23T01:36:47.594Z,7.70
2019-02-23T01:39:16.378Z,7.60
2019-02-23T01:41:45.217Z,7.60
2019-02-23T01:44:13.918Z,7.60
2019-02-23T01:46:42.626Z,7.60
2019-02-23T01:49:11.393Z,7.60
2019-02-23T01:51:40.110Z,7.60
2019-02-23T01:54:08.878Z,7.60
2019-02-23T01:56:37.620Z,7.60
2019-02-23T01:59:06.317Z,7.60
2019-02-23T02:01:35.096Z,7.50
2019-02-23T02:04:03.850Z,7.50
2019-02-23T02:06:33.664Z,7.50
2019-02-23T02:09:02.871Z,7.50
2019-02-23T02:11:31.644Z,7.40
2019-02-23T02:14:00.470Z,7.40
2019-02-23T02:16:29.915Z,7.40
2019-02-23T02:18:58.657Z,7.40
2019-02-23T02:21:27.358Z,7.40
2019-02-23T02:23:56.264Z,7.30
2019-02-23T02:26:24.999Z,7.30
2019-02-23T02:28:53.706Z,7.30
2019-02-23T02:31:22.465Z,7.30
2019-02-23T02:34:19.626Z,7.30
2019-02-23T02:36:48.437Z,7.30
2019-02-23T02:39:17.120Z,7.20
2019-02-23T02:41:45.850Z,7.10
2019-02-23T02:44:14.632Z,7.10
2019-02-23T02:46:43.345Z,7.10
2019-02-23T02:49:12.077Z,7.10
2019-02-23T02:51:40.782Z,7.10
2019-02-23T02:54:10.767Z,7.10
2019-02-23T02:56:39.505Z,7.00
2019-02-23T02:59:08.355Z,7.00
2019-02-23T03:01:37.119Z,7.00
2019-02-23T03:04:05.977Z,7.00
2019-02-23T03:06:34.851Z,7.00
2019-02-23T03:09:04.104Z,7.00
2019-02-23T03:11:32.825Z,7.00
2019-02-23T03:14:02.450Z,7.00
2019-02-23T03:16:31.193Z,7.00
2019-02-23T03:18:59.926Z,6.90
2019-02-23T03:21:28.634Z,6.90
2019-02-23T03:23:59.639Z,6.90
2019-02-23T03:26:28.380Z,6.90
2019-02-23T03:28:57.070Z,6.80
2019-02-23T03:31:25.845Z,6.80
2019-02-23T03:33:54.668Z,6.80
2019-02-23T03:36:42.706Z,6.80
2019-02-23T03:39:11.626Z,6.80
2019-02-23T03:41:40.408Z,6.80
2019-02-23T03:44:10.102Z,6.80
2019-02-23T03:46:40.566Z,6.70
2019-02-23T03:49:09.280Z,6.70
2019-02-23T03:51:37.998Z,6.70
2019-02-23T03:54:06.722Z,6.70
2019-02-23T03:56:35.579Z,6.60
2019-02-23T03:59:04.353Z,6.70
2019-02-23T04:01:33.181Z,6.60
2019-02-23T04:04:01.906Z,6.70
2019-02-23T04:06:30.667Z,6.60
2019-02-23T04:08:59.442Z,6.60
2019-02-23T04:11:28.165Z,6.60
2019-02-23T04:13:56.921Z,6.60
2019-02-23T04:16:26.506Z,6.60
2019-02-23T04:18:55.266Z,6.60
2019-02-23T04:21:24.033Z,6.50
2019-02-23T04:23:55.317Z,6.50
2019-02-23T04:26:24.208Z,6.60
2019-02-23T04:28:53.809Z,6.50
2019-02-23T04:31:22.566Z,7.80
2019-02-23T04:33:51.353Z,6.50
2019-02-23T04:36:20.206Z,6.50
2019-02-23T04:38:50.154Z,6.50
2019-02-23T04:41:18.985Z,6.50
2019-02-23T04:43:47.698Z,6.50
2019-02-23T04:46:16.395Z,6.50
2019-02-23T04:48:52.520Z,6.50
2019-02-23T04:51:21.992Z,6.50
2019-02-23T04:53:50.724Z,6.40
2019-02-23T04:56:19.552Z,6.40
2019-02-23T04:58:50.672Z,6.40
2019-02-23T05:01:19.398Z,6.40
2019-02-23T05:03:48.133Z,6.40
2019-02-23T05:06:16.857Z,6.30
2019-02-23T05:08:45.578Z,6.20
2019-02-23T05:11:14.321Z,6.20
2019-02-23T05:13:43.035Z,6.20
2019-02-23T05:16:11.751Z,6.20
2019-02-23T05:18:41.374Z,6.20
2019-02-23T05:21:10.119Z,6.10
2019-02-23T05:23:38.898Z,6.10
2019-02-23T05:26:07.679Z,6.10
2019-02-23T05:28:36.425Z,6.10
2019-02-23T05:31:05.122Z,6.00
2019-02-23T05:33:33.840Z,6.00
2019-02-23T05:36:02.558Z,5.90
2019-02-23T05:38:31.266Z,5.90
2019-02-23T05:41:00.026Z,5.90
2019-02-23T05:43:28.765Z,5.90
2019-02-23T05:45:57.470Z,5.80
2019-02-23T05:48:26.170Z,5.80
2019-02-23T05:50:54.886Z,5.80
2019-02-23T05:53:23.596Z,5.70
2019-02-23T05:55:52.300Z,5.70
2019-02-23T05:58:21.061Z,5.70
2019-02-23T06:00:49.765Z,5.60
2019-02-23T06:03:18.478Z,5.60
2019-02-23T06:05:47.209Z,5.60
2019-02-23T06:08:15.917Z,5.60
2019-02-23T06:10:44.931Z,5.60
2019-02-23T06:13:13.927Z,5.60
2019-02-23T06:15:42.648Z,5.60
2019-02-23T06:18:11.370Z,5.50
2019-02-23T06:20:43.496Z,5.50
2019-02-23T06:23:12.189Z,5.50
2019-02-23T06:25:40.889Z,5.50
2019-02-23T06:28:09.623Z,5.50
2019-02-23T06:30:38.326Z,5.50
2019-02-23T06:33:07.034Z,5.40
2019-02-23T06:35:36.318Z,5.40
2019-02-23T06:38:05.086Z,5.40
2019-02-23T06:40:34.343Z,5.40
2019-02-23T06:43:22.382Z,5.40
2019-02-23T06:46:03.035Z,5.40
2019-02-23T06:48:32.903Z,5.40
2019-02-23T06:51:01.790Z,5.40
2019-02-23T06:53:30.501Z,5.40
2019-02-23T06:55:59.243Z,5.40
2019-02-23T06:58:28.131Z,5.40
2019-02-23T07:00:56.835Z,5.40
2019-02-23T07:03:25.546Z,5.40
2019-02-23T07:05:56.572Z,5.40
2019-02-23T07:08:25.287Z,5.40
2019-02-23T07:10:54.154Z,5.40
2019-02-23T07:13:22.902Z,5.40
2019-02-23T07:15:52.941Z,5.40
2019-02-23T07:18:21.652Z,5.40
2019-02-23T07:20:50.422Z,5.40
2019-02-23T07:23:19.570Z,5.50
2019-02-23T07:25:48.335Z,5.50
2019-02-23T07:28:17.247Z,5.50
2019-02-23T07:30:45.966Z,5.50
2019-02-23T07:33:14.959Z,5.60
2019-02-23T07:35:44.162Z,5.60
2019-02-23T07:38:13.347Z,5.60
2019-02-23T07:40:42.162Z,5.60
2019-02-23T07:43:10.985Z,5.70
2019-02-23T07:45:39.680Z,5.70
2019-02-23T07:48:08.624Z,5.70
2019-02-23T07:50:38.135Z,5.80
2019-02-23T07:53:06.936Z,5.80
2019-02-23T07:55:35.953Z,5.80
2019-02-23T07:58:06.822Z,5.90
2019-02-23T08:00:35.537Z,5.90
2019-02-23T08:03:04.382Z,6.00
2019-02-23T08:05:33.084Z,6.00
2019-02-23T08:08:01.793Z,6.10
2019-02-23T08:10:30.586Z,6.10
2019-02-23T08:12:59.304Z,6.20
2019-02-23T08:15:28.001Z,6.30
2019-02-23T08:17:56.745Z,6.30
2019-02-23T08:20:25.463Z,6.30
2019-02-23T08:22:55.146Z,6.40
2019-02-23T08:25:23.946Z,6.50
2019-02-23T08:27:52.648Z,6.50
2019-02-23T08:30:21.351Z,6.60
2019-02-23T08:32:50.154Z,6.70
2019-02-23T08:35:18.954Z,6.70
2019-02-23T08:37:47.652Z,6.80
2019-02-23T08:40:16.436Z,6.90
2019-02-23T08:42:45.175Z,6.90
2019-02-23T08:45:13.874Z,7.00
2019-02-23T08:47:42.610Z,7.10
2019-02-23T08:50:11.974Z,7.10
2019-02-23T08:52:48.422Z,7.20
2019-02-23T08:55:11.302Z,7.20
2019-02-23T08:57:59.392Z,7.30
2019-02-23T09:00:28.510Z,7.30
2019-02-23T09:02:57.451Z,7.40
2019-02-23T09:05:26.154Z,7.40
2019-02-23T09:07:54.887Z,7.50
2019-02-23T09:10:23.646Z,7.50
2019-02-23T09:12:52.422Z,7.60
2019-02-23T09:15:22.300Z,7.60
2019-02-23T09:17:51.230Z,7.70
2019-02-23T09:20:28.580Z,7.80
2019-02-23T09:22:59.712Z,7.90
2019-02-23T09:25:20.847Z,8.00
2019-02-23T09:27:49.694Z,8.10
2019-02-23T09:30:18.418Z,8.40
2019-02-23T09:32:47.215Z,8.80
2019-02-23T09:35:15.913Z,9.00
2019-02-23T09:37:44.660Z,9.30
2019-02-23T09:40:13.410Z,9.50
2019-02-23T09:42:42.142Z,9.70
2019-02-23T09:45:11.482Z,9.80
2019-02-23T09:47:40.199Z,10.20
2019-02-23T09:50:09.027Z,10.50
2019-02-23T09:52:37.758Z,10.60
2019-02-23T09:55:06.490Z,10.80
2019-02-23T09:57:35.194Z,11.10
2019-02-23T10:00:04.015Z,11.40
2019-02-23T10:02:32.732Z,11.70
2019-02-23T10:05:01.443Z,11.80
2019-02-23T10:07:31.084Z,11.90
2019-02-23T10:09:59.801Z,12.10
2019-02-23T10:12:28.652Z,12.30
2019-02-23T10:14:57.415Z,12.60
2019-02-23T10:17:26.110Z,12.90
2019-02-23T10:19:54.805Z,13.20
2019-02-23T10:22:23.526Z,13.40
2019-02-23T10:24:52.233Z,13.60
2019-02-23T10:27:20.938Z,14.00
2019-02-23T10:29:51.302Z,14.30
2019-02-23T10:32:20.009Z,14.50
2019-02-23T10:34:48.803Z,14.80
2019-02-23T10:37:17.544Z,15.00
2019-02-23T10:39:46.324Z,14.80
2019-02-23T10:42:15.040Z,14.90
2019-02-23T10:44:43.782Z,15.40
2019-02-23T10:47:12.546Z,15.40
2019-02-23T10:49:41.502Z,15.60
2019-02-23T10:52:10.242Z,15.70
2019-02-23T10:54:38.952Z,16.00
2019-02-23T10:57:07.696Z,16.20
2019-02-23T10:59:36.494Z,16.40
2019-02-23T11:02:05.254Z,16.70
2019-02-23T11:04:34.057Z,17.00
2019-02-23T11:07:02.774Z,16.70
2019-02-23T11:09:32.846Z,15.80
2019-02-23T11:12:01.632Z,16.20
2019-02-23T11:14:30.350Z,16.70
2019-02-23T11:16:59.054Z,17.20
2019-02-23T11:19:27.845Z,17.20
2019-02-23T11:21:56.563Z,17.60
2019-02-23T11:24:25.309Z,17.20
2019-02-23T11:26:54.018Z,17.20
2019-02-23T11:29:22.789Z,17.70
2019-02-23T11:31:51.629Z,17.70
2019-02-23T11:34:20.334Z,17.40
2019-02-23T11:36:49.069Z,16.70
2019-02-23T11:39:17.855Z,16.80
2019-02-23T11:41:46.694Z,17.00
2019-02-23T11:44:15.438Z,17.30
2019-02-23T11:46:59.240Z,18.20
2019-02-23T11:49:17.021Z,18.20
2019-02-23T11:51:45.818Z,18.40
2019-02-23T11:54:14.518Z,18.80
2019-02-23T11:56:43.300Z,18.80
2019-02-23T11:59:12.014Z,18.70
2019-02-23T12:01:40.998Z,19.10
2019-02-23T12:04:10.632Z,19.10
2019-02-23T12:06:39.334Z,19.00
2019-02-23T12:09:08.274Z,19.60
2019-02-23T12:11:37.819Z,19.40
2019-02-23T12:14:06.514Z,19.60
2019-02-23T12:16:35.470Z,19.90
2019-02-23T12:19:04.243Z,20.00
2019-02-23T12:24:06.331Z,19.50
2019-02-23T12:26:34.838Z,19.40
2019-02-23T12:29:03.558Z,19.40
2019-02-23T12:31:32.261Z,19.80
2019-02-23T12:34:01.178Z,19.70
2019-02-23T12:36:29.877Z,18.90
2019-02-23T12:38:58.602Z,18.90
2019-02-23T12:41:27.302Z,19.10
2019-02-23T12:43:56.018Z,19.20
2019-02-23T12:46:24.741Z,19.10
2019-02-23T12:48:53.443Z,19.10
2019-02-23T12:51:22.142Z,18.90
2019-02-23T12:53:50.854Z,18.70
2019-02-23T12:56:19.541Z,18.60
2019-02-23T12:58:48.840Z,18.90
2019-02-23T13:01:17.710Z,19.30
2019-02-23T13:03:46.415Z,19.40
2019-02-23T13:06:15.118Z,19.20
2019-02-23T13:09:12.173Z,19.20
2019-02-23T13:11:41.243Z,19.20
2019-02-23T13:15:01.020Z,19.40
2019-02-23T13:18:23.355Z,19.30
2019-02-23T13:21:23.870Z,19.80
2019-02-23T13:24:50.337Z,20.00
2019-02-23T13:27:29.311Z,20.80
2019-02-23T13:30:57.779Z,20.90
2019-02-23T13:34:13.876Z,21.10
2019-02-23T13:37:12.694Z,21.70
2019-02-23T13:40:22.549Z,22.00
2019-02-23T13:43:20.359Z,22.60
2019-02-23T13:46:16.420Z,21.80
2019-02-23T13:49:20.397Z,21.40
2019-02-23T13:52:42.691Z,21.80
2019-02-23T13:55:42.783Z,21.90
2019-02-23T13:58:35.742Z,21.60
2019-02-23T14:02:03.807Z,21.50
2019-02-23T14:05:26.099Z,21.70
2019-02-23T14:08:31.105Z,21.90
2019-02-23T14:11:35.005Z,22.20
2019-02-23T14:14:28.866Z,21.90
2019-02-23T14:17:29.413Z,22.00
2019-02-23T14:20:37.396Z,21.40
2019-02-23T14:23:33.673Z,22.10
2019-02-23T14:26:29.446Z,21.90
2019-02-23T14:29:39.361Z,22.10
2019-02-23T14:32:33.595Z,21.30
2019-02-23T14:35:32.402Z,20.90
2019-02-23T14:38:19.793Z,20.40
2019-02-23T14:41:32.994Z,20.30
2019-02-23T14:44:38.410Z,20.00
2019-02-23T14:47:45.134Z,19.70
2019-02-23T14:50:42.725Z,19.50
2019-02-23T14:53:33.870Z,19.50
2019-02-23T14:56:44.674Z,19.80
2019-02-23T15:00:04.179Z,19.60
2019-02-23T15:03:22.353Z,19.00
2019-02-23T15:06:28.691Z,18.70
2019-02-23T15:09:42.426Z,18.60
2019-02-23T15:12:41.790Z,18.40
2019-02-23T15:15:32.390Z,18.40
2019-02-23T15:18:44.658Z,18.30
2019-02-23T15:21:55.110Z,18.10
2019-02-23T15:24:51.474Z,18.10
2019-02-23T15:27:40.750Z,17.90
2019-02-23T15:30:52.330Z,17.70
2019-02-23T15:33:54.708Z,17.40
2019-02-23T15:37:00.165Z,17.50
2019-02-23T15:39:41.410Z,17.50
2019-02-23T15:43:04.089Z,17.40
2019-02-23T15:45:59.336Z,17.40
2019-02-23T15:49:30.957Z,17.40
2019-02-23T15:52:01.045Z,17.30
2019-02-23T15:54:29.834Z,17.10
2019-02-23T15:56:58.762Z,16.90
2019-02-23T15:59:27.482Z,16.70
2019-02-23T16:01:56.257Z,16.50
2019-02-23T16:04:24.993Z,16.20
2019-02-23T16:06:53.767Z,16.60
2019-02-23T16:09:22.515Z,16.60
2019-02-23T16:11:51.406Z,16.80
2019-02-23T16:14:20.187Z,17.10
2019-02-23T16:16:49.174Z,17.30
2019-02-23T16:19:17.889Z,17.40
2019-02-23T16:21:46.614Z,17.30
2019-02-23T16:24:15.404Z,17.20
2019-02-23T16:26:44.124Z,17.10
2019-02-23T16:29:12.941Z,17.20
2019-02-23T16:31:41.654Z,16.90
2019-02-23T16:34:10.354Z,16.70
2019-02-23T16:36:41.398Z,16.40
2019-02-23T16:39:13.211Z,16.20
2019-02-23T16:41:41.914Z,15.70
2019-02-23T16:44:10.699Z,15.50
2019-02-23T16:46:39.415Z,15.40
2019-02-23T16:49:08.158Z,15.30
2019-02-23T16:51:37.881Z,15.20
2019-02-23T16:54:06.599Z,14.70
2019-02-23T16:56:35.290Z,14.50
2019-02-23T16:59:04.022Z,14.30
2019-02-23T17:01:32.739Z,14.20
2019-02-23T17:04:01.453Z,14.00
2019-02-23T17:06:32.730Z,14.00
2019-02-23T17:09:00.593Z,14.10
2019-02-23T17:11:29.322Z,14.10
2019-02-23T17:13:58.106Z,13.90
2019-02-23T17:16:26.854Z,13.90
2019-02-23T17:18:57.529Z,13.80
2019-02-23T17:21:26.262Z,13.70
2019-02-23T17:23:56.745Z,13.60
2019-02-23T17:26:25.484Z,13.60
2019-02-23T17:28:54.269Z,13.50
2019-02-23T17:31:24.015Z,13.40
2019-02-23T17:33:52.767Z,13.10
2019-02-23T17:36:21.503Z,13.10
2019-02-23T17:38:50.538Z,13.10
2019-02-23T17:41:19.334Z,13.10
2019-02-23T17:43:48.057Z,12.90
2019-02-23T17:46:16.794Z,12.80
2019-02-23T17:48:45.586Z,12.70
2019-02-23T17:51:14.398Z,12.60
2019-02-23T17:53:43.134Z,12.30
2019-02-23T17:56:12.624Z,12.00
2019-02-23T17:58:42.506Z,11.90
2019-02-23T18:01:11.298Z,11.90
2019-02-23T18:03:40.366Z,11.80
2019-02-23T18:06:10.780Z,11.80
2019-02-23T18:08:39.760Z,11.60
2019-02-23T18:11:09.349Z,11.50
2019-02-23T18:13:38.358Z,11.50
2019-02-23T18:16:07.894Z,11.40
2019-02-23T18:18:36.727Z,11.40
2019-02-23T18:21:07.601Z,11.40
2019-02-23T18:23:37.662Z,11.20
2019-02-23T18:26:07.617Z,11.20
2019-02-23T18:28:36.516Z,11.10
2019-02-23T18:31:05.339Z,11.00
2019-02-23T18:33:34.078Z,11.00
2019-02-23T18:36:02.949Z,11.00
2019-02-23T18:38:33.046Z,10.80
2019-02-23T18:41:02.021Z,10.80
2019-02-23T18:43:30.742Z,10.70
2019-02-23T18:45:59.561Z,10.70
2019-02-23T18:48:28.302Z,10.60
2019-02-23T18:50:59.654Z,10.60
2019-02-23T18:53:28.635Z,10.50
2019-02-23T18:55:57.396Z,10.50
2019-02-23T18:58:26.622Z,10.40
2019-02-23T19:00:55.360Z,10.50
2019-02-23T19:03:24.165Z,10.40
2019-02-23T19:05:52.930Z,10.40
2019-02-23T19:08:21.682Z,10.30
2019-02-23T19:10:50.399Z,10.20
2019-02-23T19:13:19.191Z,10.10
2019-02-23T19:15:48.722Z,10.10
2019-02-23T19:18:18.920Z,10.00
2019-02-23T19:20:49.000Z,10.00
2019-02-23T19:23:17.793Z,9.90
2019-02-23T19:26:06.537Z,9.90
2019-02-23T19:28:43.059Z,9.90
2019-02-23T19:31:08.237Z,9.70
2019-02-23T19:33:37.865Z,9.70
2019-02-23T19:36:06.653Z,9.60
2019-02-23T19:38:35.405Z,9.50
2019-02-23T19:41:06.973Z,9.50
2019-02-23T19:43:35.695Z,9.50
2019-02-23T19:46:04.424Z,9.50
2019-02-23T19:48:33.129Z,9.50
2019-02-23T19:51:04.767Z,9.40
2019-02-23T19:53:33.524Z,9.30
2019-02-23T19:56:02.301Z,9.30
2019-02-23T19:58:31.078Z,9.20
2019-02-23T20:00:59.888Z,9.20
2019-02-23T20:03:28.758Z,9.20
2019-02-23T20:05:57.580Z,9.10
2019-02-23T20:08:26.399Z,9.10
2019-02-23T20:10:55.171Z,9.10
2019-02-23T20:13:23.911Z,9.10
2019-02-23T20:15:52.711Z,9.10
2019-02-23T20:18:21.479Z,9.10
2019-02-23T20:20:50.268Z,9.00
2019-02-23T20:23:18.965Z,9.00
2019-02-23T20:25:47.711Z,9.00
2019-02-23T20:28:16.528Z,8.90
2019-02-23T20:30:45.240Z,8.90
2019-02-23T20:33:14.071Z,8.80
2019-02-23T20:35:43.897Z,8.80
2019-02-23T20:38:12.782Z,8.70
2019-02-23T20:40:41.734Z,8.70
2019-02-23T20:43:10.526Z,8.70
2019-02-23T20:45:39.270Z,8.60
2019-02-23T20:48:08.091Z,8.60
2019-02-23T20:50:36.794Z,8.60
2019-02-23T20:53:05.672Z,8.60
2019-02-23T20:55:35.003Z,8.50
2019-02-23T20:58:04.527Z,8.40
2019-02-23T21:00:33.223Z,8.40
2019-02-23T21:03:01.955Z,8.10
2019-02-23T21:05:30.698Z,8.40
2019-02-23T21:07:59.408Z,8.40
2019-02-23T21:10:28.327Z,8.40
2019-02-23T21:12:57.112Z,8.40
2019-02-23T21:15:25.830Z,8.30
2019-02-23T21:17:54.642Z,8.30
2019-02-23T21:20:23.326Z,8.30
2019-02-23T21:22:52.795Z,8.20
2019-02-23T21:25:21.529Z,8.20
2019-02-23T21:27:50.262Z,8.20
2019-02-23T21:30:19.081Z,8.20
2019-02-23T21:32:48.006Z,8.20
2019-02-23T21:35:17.189Z,8.10
2019-02-23T21:37:46.103Z,8.10
2019-02-23T21:40:14.882Z,8.00
2019-02-23T21:42:43.628Z,8.00
2019-02-23T21:45:12.411Z,8.00
2019-02-23T21:47:41.242Z,8.00
2019-02-23T21:50:10.021Z,7.90
2019-02-23T21:52:38.737Z,7.80
2019-02-23T21:55:07.497Z,7.70
2019-02-23T21:57:36.236Z,7.70
2019-02-23T22:00:05.053Z,7.70
2019-02-23T22:02:33.784Z,7.70
2019-02-23T22:05:11.725Z,7.70
2019-02-23T22:07:32.990Z,7.60
2019-02-23T22:10:01.777Z,7.60
2019-02-23T22:12:30.575Z,7.60
2019-02-23T22:14:59.290Z,7.60
2019-02-23T22:17:28.041Z,7.60
2019-02-23T22:19:56.817Z,7.60
2019-02-23T22:22:25.641Z,7.60
2019-02-23T22:24:54.489Z,7.50
2019-02-23T22:27:31.122Z,7.50
2019-02-23T22:29:53.834Z,7.50
2019-02-23T22:32:22.547Z,7.40
2019-02-23T22:34:51.278Z,7.30
2019-02-23T22:37:20.078Z,7.20
2019-02-23T22:39:48.886Z,7.10
2019-02-23T22:42:17.701Z,7.00
2019-02-23T22:44:46.462Z,7.00
2019-02-23T22:47:15.240Z,7.10
2019-02-23T22:49:43.962Z,7.10
2019-02-23T22:52:12.678Z,7.10
2019-02-23T22:54:41.406Z,7.10
2019-02-23T22:57:10.182Z,7.10
2019-02-23T22:59:38.898Z,7.10
2019-02-23T23:02:07.926Z,7.10
2019-02-23T23:04:36.642Z,7.00
2019-02-23T23:07:05.334Z,7.00
2019-02-23T23:09:34.070Z,6.90
2019-02-23T23:12:02.777Z,6.80
2019-02-23T23:14:31.479Z,6.80
2019-02-23T23:17:00.217Z,6.80
2019-02-23T23:19:29.407Z,6.70
2019-02-23T23:21:58.111Z,6.70
2019-02-23T23:24:26.900Z,6.60
2019-02-23T23:26:55.782Z,6.60
2019-02-23T23:29:24.557Z,6.50
2019-02-23T23:31:53.366Z,6.50
2019-02-23T23:34:22.086Z,6.50
2019-02-23T23:36:50.802Z,6.40
2019-02-23T23:39:19.538Z,6.30
2019-02-23T23:41:48.279Z,6.30
2019-02-23T23:44:16.998Z,6.20
2019-02-23T23:46:45.811Z,6.20
2019-02-23T23:49:16.378Z,6.20
2019-02-23T23:51:45.060Z,6.20
2019-02-23T23:54:13.791Z,6.20
2019-02-23T23:56:42.574Z,6.20
2019-02-23T23:59:11.362Z,6.10
